createdAt,value
2017-06-02T00:02:22.255Z,10.27
2017-06-02T00:04:49.042Z,9.68
2017-06-02T00:07:18.851Z,9.10
2017-06-02T00:09:44.902Z,9.28
2017-06-02T00:12:11.704Z,8.32
2017-06-02T00:14:38.491Z,8.65
2017-06-02T00:17:05.287Z,9.40
2017-06-02T00:19:47.041Z,8.93
2017-06-02T00:22:13.859Z,9.40
2017-06-02T00:24:40.670Z,9.02
2017-06-02T00:27:07.474Z,9.42
2017-06-02T00:29:34.283Z,8.85
2017-06-02T00:32:00.353Z,9.85
2017-06-02T00:34:27.170Z,9.87
2017-06-02T00:36:53.966Z,9.53
2017-06-02T00:39:35.727Z,9.28
2017-06-02T00:42:02.534Z,9.72
2017-06-02T00:44:29.355Z,10.28
2017-06-02T00:46:56.146Z,10.65
2017-06-02T00:49:22.943Z,8.68
2017-06-02T00:51:49.770Z,8.38
2017-06-02T00:54:16.568Z,8.63
2017-06-02T00:56:42.626Z,9.27
2017-06-02T00:59:09.426Z,8.30
2017-06-02T01:01:36.222Z,10.32
2017-06-02T01:04:03.017Z,9.33
2017-06-02T01:06:29.819Z,10.82
2017-06-02T01:08:56.626Z,8.52
2017-06-02T01:11:23.419Z,9.97
2017-06-02T01:13:50.219Z,10.30
2017-06-02T01:19:38.259Z,10.13
2017-06-02T01:32:44.399Z,9.68
2017-06-02T01:35:11.199Z,8.90
2017-06-02T01:37:38.009Z,9.87
2017-06-02T01:40:04.794Z,8.87
2017-06-02T01:42:31.585Z,9.68
2017-06-02T01:44:58.403Z,8.85
2017-06-02T01:47:25.217Z,9.65
2017-06-02T01:49:51.998Z,10.30
2017-06-02T01:52:18.814Z,9.45
2017-06-02T01:54:45.591Z,10.05
2017-06-02T01:57:12.370Z,9.80
2017-06-02T01:59:54.107Z,8.98
2017-06-02T02:02:20.922Z,8.28
2017-06-02T02:04:47.707Z,9.57
2017-06-02T02:07:13.763Z,10.88
2017-06-02T02:09:40.562Z,8.65
2017-06-02T02:12:07.346Z,9.58
2017-06-02T02:14:34.146Z,9.55
2017-06-02T02:17:00.178Z,10.55
2017-06-02T02:19:26.985Z,9.98
2017-06-02T02:21:53.779Z,10.02
2017-06-02T02:24:19.954Z,10.27
2017-06-02T02:26:46.771Z,10.23
2017-06-02T02:29:13.575Z,10.35
2017-06-02T02:31:39.611Z,9.22
2017-06-02T02:34:06.406Z,10.45
2017-06-02T02:36:33.191Z,10.07
2017-06-02T02:38:59.978Z,9.37
2017-06-02T02:41:26.800Z,10.73
2017-06-02T02:43:53.597Z,10.52
2017-06-02T02:46:20.378Z,9.32
2017-06-02T02:48:46.410Z,8.48
2017-06-02T02:51:13.250Z,8.42
2017-06-02T02:53:40.036Z,8.13
2017-06-02T02:56:06.846Z,9.65
2017-06-02T02:58:33.634Z,8.40
2017-06-02T03:01:00.420Z,8.45
2017-06-02T03:03:27.213Z,9.10
2017-06-02T03:05:53.990Z,9.20
2017-06-02T03:08:20.770Z,9.42
2017-06-02T03:10:47.551Z,9.87
2017-06-02T03:13:14.334Z,10.88
2017-06-02T03:15:41.127Z,11.28
2017-06-02T03:18:07.902Z,9.95
2017-06-02T03:20:34.687Z,10.03
2017-06-02T03:23:01.478Z,10.70
2017-06-02T03:25:28.270Z,10.82
2017-06-02T03:27:55.046Z,9.87
2017-06-02T03:30:53.035Z,11.77
2017-06-02T03:33:19.828Z,10.33
2017-06-02T03:35:46.610Z,10.32
2017-06-02T03:38:13.398Z,10.37
2017-06-02T03:40:40.181Z,10.47
2017-06-02T03:43:06.983Z,10.75
2017-06-02T03:45:33.767Z,11.23
2017-06-02T03:48:00.550Z,10.53
2017-06-02T03:50:27.335Z,10.62
2017-06-02T03:52:54.185Z,11.38
2017-06-02T03:55:20.964Z,11.72
2017-06-02T03:57:47.746Z,10.77
2017-06-02T04:00:14.526Z,11.28
2017-06-02T04:02:41.313Z,10.63
2017-06-02T04:05:08.174Z,10.72
2017-06-02T04:07:35.013Z,11.58
2017-06-02T04:12:38.298Z,11.02
2017-06-02T04:15:04.365Z,10.83
2017-06-02T04:17:31.171Z,13.53
2017-06-02T04:19:57.966Z,10.90
2017-06-02T04:22:24.801Z,9.82
2017-06-02T04:24:51.601Z,10.82
2017-06-02T04:27:17.662Z,11.23
2017-06-02T04:29:44.493Z,12.55
2017-06-02T04:32:11.287Z,12.50
2017-06-02T04:34:38.071Z,10.97
2017-06-02T04:37:04.119Z,11.32
2017-06-02T04:39:30.922Z,12.38
2017-06-02T04:41:57.742Z,10.97
2017-06-02T04:44:24.534Z,11.57
2017-06-02T04:46:50.598Z,11.32
2017-06-02T04:49:17.406Z,10.38
2017-06-02T04:51:44.186Z,11.38
2017-06-02T04:54:11.003Z,11.78
2017-06-02T04:56:37.054Z,10.65
2017-06-02T04:59:03.864Z,11.52
2017-06-02T05:01:30.655Z,10.97
2017-06-02T05:03:57.439Z,11.13
2017-06-02T05:06:23.487Z,11.68
2017-06-02T05:08:50.287Z,14.37
2017-06-02T05:11:17.070Z,11.33
2017-06-02T05:13:43.126Z,10.75
2017-06-02T05:16:09.923Z,6.32
2017-06-02T05:18:36.710Z,10.33
2017-06-02T05:21:03.495Z,12.28
2017-06-02T05:23:29.582Z,11.55
2017-06-02T05:25:56.395Z,13.30
2017-06-02T05:28:23.170Z,12.62
2017-06-02T05:30:49.966Z,17.65
2017-06-02T05:33:16.025Z,14.60
2017-06-02T05:35:42.826Z,12.62
2017-06-02T05:38:09.702Z,14.25
2017-06-02T05:40:36.597Z,14.40
2017-06-02T05:43:03.374Z,13.83
2017-06-02T05:45:30.175Z,12.62
2017-06-02T05:47:56.993Z,10.65
2017-06-02T05:50:23.807Z,5.82
2017-06-02T05:52:49.896Z,5.52
2017-06-02T05:55:16.691Z,9.03
2017-06-02T05:57:43.528Z,8.10
2017-06-02T06:00:10.318Z,11.70
2017-06-02T06:02:37.119Z,5.43
2017-06-02T06:05:03.914Z,5.43
2017-06-02T06:07:29.954Z,5.65
2017-06-02T06:09:56.742Z,7.40
2017-06-02T06:12:23.587Z,5.67
2017-06-02T06:14:50.498Z,5.45
2017-06-02T06:17:17.355Z,8.05
2017-06-02T06:19:44.154Z,8.62
2017-06-02T06:22:10.959Z,7.47
2017-06-02T06:24:37.829Z,4.80
2017-06-02T06:27:04.660Z,8.03
2017-06-02T06:29:30.810Z,6.68
2017-06-02T06:31:57.691Z,5.00
2017-06-02T06:34:23.747Z,4.12
2017-06-02T06:36:50.550Z,5.37
2017-06-02T06:39:17.359Z,3.90
2017-06-02T06:41:44.178Z,8.40
2017-06-02T06:44:11.002Z,6.00
2017-06-02T06:46:37.094Z,5.53
2017-06-02T06:49:03.912Z,4.02
2017-06-02T06:51:30.703Z,6.23
2017-06-02T06:53:57.518Z,5.78
2017-06-02T06:56:24.307Z,7.03
2017-06-02T06:58:50.359Z,5.17
2017-06-02T07:01:17.159Z,6.73
2017-06-02T07:03:43.966Z,10.23
2017-06-02T07:06:10.762Z,5.92
2017-06-02T07:08:36.814Z,5.97
2017-06-02T07:11:03.610Z,3.58
2017-06-02T07:13:30.410Z,4.42
2017-06-02T07:15:57.226Z,7.38
2017-06-02T07:18:23.277Z,12.02
2017-06-02T07:20:50.099Z,3.60
2017-06-02T07:23:16.931Z,4.02
2017-06-02T07:25:43.750Z,5.28
2017-06-02T07:28:10.552Z,5.40
2017-06-02T07:30:37.407Z,5.07
2017-06-02T07:33:04.226Z,5.23
2017-06-02T07:35:31.039Z,7.20
2017-06-02T07:37:57.102Z,11.33
2017-06-02T07:40:23.978Z,6.22
2017-06-02T07:42:50.859Z,4.42
2017-06-02T07:45:16.919Z,3.35
2017-06-02T07:47:43.742Z,3.72
2017-06-02T07:50:09.798Z,4.45
2017-06-02T07:52:36.594Z,3.28
2017-06-02T07:55:03.474Z,5.82
2017-06-02T07:57:30.270Z,5.52
2017-06-02T07:59:57.058Z,8.32
2017-06-02T08:02:23.847Z,4.80
2017-06-02T08:04:49.918Z,3.65
2017-06-02T08:07:16.705Z,6.60
2017-06-02T08:09:43.486Z,3.70
2017-06-02T08:12:09.530Z,3.97
2017-06-02T08:14:36.312Z,3.85
2017-06-02T08:17:03.098Z,4.87
2017-06-02T08:19:29.150Z,3.93
2017-06-02T08:21:55.944Z,5.27
2017-06-02T08:24:22.730Z,3.23
2017-06-02T08:26:49.567Z,3.30
2017-06-02T08:29:16.370Z,3.33
2017-06-02T08:31:42.443Z,2.40
2017-06-02T08:34:09.250Z,6.12
2017-06-02T08:36:36.062Z,3.40
2017-06-02T08:39:02.915Z,2.03
2017-06-02T08:41:29.766Z,2.58
2017-06-02T08:43:56.675Z,3.72
2017-06-02T08:46:23.664Z,2.72
2017-06-02T08:48:51.047Z,2.97
2017-06-02T08:51:17.859Z,3.28
2017-06-02T08:53:44.730Z,3.14
2017-06-02T08:56:11.552Z,3.03
2017-06-02T08:58:38.334Z,5.68
2017-06-02T09:01:05.158Z,2.55
2017-06-02T09:03:32.006Z,2.40
2017-06-02T09:06:05.735Z,2.33
2017-06-02T09:08:32.560Z,3.16
2017-06-02T09:10:59.387Z,2.75
2017-06-02T09:13:26.206Z,3.08
2017-06-02T09:15:53.039Z,3.92
2017-06-02T09:18:19.843Z,2.90
2017-06-02T09:20:46.733Z,3.07
2017-06-02T09:23:13.580Z,2.60
2017-06-02T09:25:40.469Z,2.84
2017-06-02T09:28:07.318Z,3.76
2017-06-02T09:30:33.419Z,4.57
2017-06-02T09:33:00.249Z,3.30
2017-06-02T09:35:27.110Z,2.94
2017-06-02T09:37:53.936Z,4.05
2017-06-02T09:40:20.743Z,3.56
2017-06-02T09:42:47.539Z,4.14
2017-06-02T09:45:13.658Z,4.72
2017-06-02T09:47:40.454Z,3.52
2017-06-02T09:50:07.264Z,3.27
2017-06-02T09:52:34.133Z,4.10
2017-06-02T09:55:00.970Z,4.14
2017-06-02T09:57:27.762Z,3.56
2017-06-02T09:59:54.599Z,5.32
2017-06-02T10:02:21.446Z,7.18
2017-06-02T10:04:48.239Z,5.32
2017-06-02T10:07:15.106Z,5.86
2017-06-02T10:09:41.926Z,5.56
2017-06-02T10:12:07.978Z,3.52
2017-06-02T10:14:34.783Z,5.24
2017-06-02T10:17:01.610Z,3.62
2017-06-02T10:19:28.495Z,3.62
2017-06-02T10:21:55.306Z,3.68
2017-06-02T10:24:53.704Z,4.28
2017-06-02T10:27:19.770Z,3.32
2017-06-02T10:29:46.583Z,4.25
2017-06-02T10:32:13.398Z,3.62
2017-06-02T10:34:40.191Z,3.76
2017-06-02T10:37:07.039Z,3.06
2017-06-02T10:39:33.079Z,5.72
2017-06-02T10:41:59.868Z,3.82
2017-06-02T10:44:26.650Z,3.24
2017-06-02T10:46:52.690Z,3.04
2017-06-02T10:49:19.618Z,3.00
2017-06-02T10:51:46.431Z,5.50
2017-06-02T10:54:13.250Z,4.94
2017-06-02T10:56:40.031Z,3.52
2017-06-02T10:59:06.874Z,4.88
2017-06-02T11:01:33.670Z,4.70
2017-06-02T11:04:00.547Z,3.90
2017-06-02T11:06:27.602Z,2.88
2017-06-02T11:08:54.487Z,6.46
2017-06-02T11:11:21.395Z,3.60
2017-06-02T11:13:48.187Z,4.54
2017-06-02T11:16:15.008Z,5.12
2017-06-02T11:18:41.078Z,7.96
2017-06-02T11:21:07.973Z,4.84
2017-06-02T11:23:34.810Z,3.63
2017-06-02T11:26:00.858Z,4.22
2017-06-02T11:28:28.468Z,7.44
2017-06-02T11:30:56.399Z,3.50
2017-06-02T11:33:24.095Z,4.38
2017-06-02T11:35:52.024Z,4.50
2017-06-02T11:38:19.945Z,4.58
2017-06-02T11:40:46.813Z,4.58
2017-06-02T11:43:13.675Z,5.62
2017-06-02T11:45:40.517Z,3.78
2017-06-02T11:48:07.332Z,4.40
2017-06-02T11:50:34.227Z,5.72
2017-06-02T11:53:01.034Z,4.30
2017-06-02T11:55:27.090Z,4.98
2017-06-02T11:57:53.899Z,4.02
2017-06-02T12:00:20.722Z,4.80
2017-06-02T12:02:47.790Z,4.66
2017-06-02T12:05:14.571Z,7.52
2017-06-02T12:07:41.411Z,4.16
2017-06-02T12:10:08.216Z,7.24
2017-06-02T12:12:35.138Z,4.54
2017-06-02T12:15:02.018Z,4.38
2017-06-02T12:17:28.115Z,4.44
2017-06-02T12:19:54.943Z,4.68
2017-06-02T12:22:21.735Z,4.58
2017-06-02T12:24:48.526Z,4.58
2017-06-02T12:27:15.309Z,4.08
2017-06-02T12:29:41.443Z,5.16
2017-06-02T12:32:08.249Z,3.92
2017-06-02T12:34:35.054Z,3.52
2017-06-02T12:37:01.868Z,4.06
2017-06-02T12:39:28.658Z,4.28
2017-06-02T12:41:55.456Z,4.30
2017-06-02T12:44:21.502Z,5.16
2017-06-02T12:46:48.306Z,4.78
2017-06-02T12:49:15.087Z,4.26
2017-06-02T12:51:41.129Z,4.16
2017-06-02T12:54:07.908Z,4.84
2017-06-02T12:56:34.695Z,3.94
2017-06-02T12:59:00.742Z,4.22
2017-06-02T13:01:27.526Z,6.34
2017-06-02T13:03:54.322Z,4.88
2017-06-02T13:06:20.379Z,4.20
2017-06-02T13:08:47.204Z,6.18
2017-06-02T13:11:15.288Z,4.48
2017-06-02T13:13:43.244Z,3.88
2017-06-02T13:16:10.940Z,4.20
2017-06-02T13:18:37.055Z,4.08
2017-06-02T13:21:03.842Z,3.86
2017-06-02T13:23:30.671Z,4.96
2017-06-02T13:25:57.551Z,4.90
2017-06-02T13:28:24.378Z,5.30
2017-06-02T13:30:51.246Z,5.20
2017-06-02T13:33:18.070Z,6.52
2017-06-02T13:35:44.871Z,4.88
2017-06-02T13:38:11.650Z,4.48
2017-06-02T13:40:37.766Z,4.94
2017-06-02T13:43:04.574Z,4.18
2017-06-02T13:45:31.436Z,4.58
2017-06-02T13:47:58.251Z,4.02
2017-06-02T13:50:25.055Z,3.78
2017-06-02T13:52:51.862Z,4.22
2017-06-02T13:55:18.646Z,4.22
2017-06-02T13:57:44.693Z,6.00
2017-06-02T14:00:11.719Z,5.86
2017-06-02T14:02:37.783Z,5.00
2017-06-02T14:05:04.626Z,4.12
2017-06-02T14:07:31.447Z,4.66
2017-06-02T14:09:58.271Z,6.28
2017-06-02T14:12:25.117Z,5.80
2017-06-02T14:14:51.897Z,4.20
2017-06-02T14:17:17.946Z,4.02
2017-06-02T14:19:44.743Z,4.92
2017-06-02T14:22:11.791Z,4.24
2017-06-02T14:24:38.583Z,4.02
2017-06-02T14:27:05.374Z,13.52
2017-06-02T14:33:23.826Z,9.13
2017-06-02T14:35:49.886Z,3.40
2017-06-02T14:38:15.966Z,3.40
2017-06-02T14:40:42.022Z,2.60
2017-06-02T14:43:08.090Z,2.97
2017-06-02T14:45:34.143Z,3.33
2017-06-02T14:48:00.208Z,3.43
2017-06-02T14:50:26.290Z,3.57
2017-06-02T14:52:52.349Z,4.77
2017-06-02T14:55:18.403Z,3.50
2017-06-02T14:57:44.622Z,4.50
2017-06-02T15:00:10.733Z,3.80
2017-06-02T15:02:36.770Z,3.60
2017-06-02T15:05:02.806Z,4.77
2017-06-02T15:07:28.894Z,3.70
2017-06-02T15:09:54.946Z,3.97
2017-06-02T15:12:20.985Z,7.07
2017-06-02T15:14:47.068Z,3.70
2017-06-02T15:17:13.122Z,3.10
2017-06-02T15:19:39.451Z,3.40
2017-06-02T15:22:05.518Z,4.00
2017-06-02T15:24:32.314Z,4.50
2017-06-02T15:26:58.366Z,3.07
2017-06-02T15:29:24.406Z,6.63
2017-06-02T15:31:50.446Z,3.77
2017-06-02T15:34:17.229Z,4.13
2017-06-02T15:36:43.270Z,3.20
2017-06-02T15:39:11.072Z,4.60
2017-06-02T15:42:20.659Z,12.87
2017-06-02T16:03:49.270Z,5.00
2017-06-02T16:06:19.612Z,5.23
2017-06-02T16:19:51.643Z,4.40
2017-06-02T16:22:17.757Z,5.47
2017-06-02T16:24:43.825Z,4.03
2017-06-02T16:27:09.886Z,5.67
2017-06-02T16:29:35.964Z,4.37
2017-06-02T16:32:02.032Z,4.60
2017-06-02T16:34:28.117Z,3.80
2017-06-02T16:36:54.169Z,5.00
2017-06-02T16:39:20.958Z,4.20
2017-06-02T16:41:47.028Z,5.30
2017-06-02T16:44:13.105Z,5.20
2017-06-02T16:46:39.162Z,3.80
2017-06-02T16:49:05.230Z,4.57
2017-06-02T16:51:31.294Z,6.20
2017-06-02T16:53:57.382Z,5.43
2017-06-02T16:56:23.483Z,9.00
2017-06-02T16:58:49.572Z,4.30
2017-06-02T17:01:15.643Z,4.40
2017-06-02T17:03:41.690Z,4.00
2017-06-02T17:06:07.751Z,4.80
2017-06-02T17:08:33.837Z,4.83
2017-06-02T17:10:59.878Z,4.30
2017-06-02T17:13:25.936Z,6.13
2017-06-02T17:15:51.987Z,5.70
2017-06-02T17:18:18.061Z,4.60
2017-06-02T17:20:44.118Z,5.43
2017-06-02T17:23:10.177Z,4.60
2017-06-02T17:25:36.276Z,4.27
2017-06-02T17:28:02.326Z,4.70
2017-06-02T17:30:28.373Z,4.60
2017-06-02T17:32:54.422Z,4.80
2017-06-02T17:35:20.523Z,4.30
2017-06-02T17:37:46.570Z,4.80
2017-06-02T17:40:12.613Z,4.70
2017-06-02T17:42:38.703Z,5.00
2017-06-02T17:45:05.509Z,4.50
2017-06-02T17:47:31.557Z,4.63
2017-06-02T17:49:57.624Z,4.53
2017-06-02T17:52:23.698Z,4.17
2017-06-02T17:54:49.757Z,5.10
2017-06-02T17:57:15.827Z,5.53
2017-06-02T17:59:41.883Z,4.77
2017-06-02T18:02:07.938Z,5.43
2017-06-02T18:04:33.985Z,4.47
2017-06-02T18:07:00.029Z,4.37
2017-06-02T18:09:26.095Z,4.37
2017-06-02T18:11:52.153Z,4.70
2017-06-02T18:14:18.207Z,4.47
2017-06-02T18:16:44.274Z,4.57
2017-06-02T18:19:10.333Z,5.00
2017-06-02T18:21:36.654Z,3.70
2017-06-02T18:24:02.715Z,4.73
2017-06-02T18:26:29.034Z,4.70
2017-06-02T18:28:55.081Z,4.03
2017-06-02T18:31:52.474Z,4.43
2017-06-02T18:34:19.490Z,5.23
2017-06-02T18:36:45.563Z,4.47
2017-06-02T18:39:12.374Z,3.67
2017-06-02T18:41:38.541Z,4.83
2017-06-02T18:44:04.582Z,4.13
2017-06-02T18:46:30.631Z,5.17
2017-06-02T18:48:56.705Z,3.83
2017-06-02T18:51:23.489Z,4.57
2017-06-02T18:54:04.541Z,5.23
2017-06-02T18:56:30.590Z,4.27
2017-06-02T18:58:56.676Z,5.33
2017-06-02T19:01:23.520Z,5.70
2017-06-02T19:03:50.332Z,5.50
2017-06-02T19:06:16.406Z,6.23
2017-06-02T19:08:42.475Z,5.23
2017-06-02T19:11:08.549Z,4.77
2017-06-02T19:13:35.329Z,4.40
2017-06-02T19:16:01.436Z,3.90
2017-06-02T19:18:27.494Z,4.40
2017-06-02T19:20:53.547Z,5.20
2017-06-02T19:23:19.618Z,6.13
2017-06-02T19:25:45.690Z,4.90
2017-06-02T19:28:11.765Z,4.83
2017-06-02T19:30:37.837Z,4.67
2017-06-02T19:33:03.901Z,4.17
2017-06-02T19:35:30.722Z,4.57
2017-06-02T19:37:56.846Z,4.37
2017-06-02T19:40:22.911Z,4.20
2017-06-02T19:42:49.726Z,3.90
2017-06-02T19:45:15.811Z,5.27
2017-06-02T19:47:41.903Z,5.13
2017-06-02T19:50:08.736Z,4.43
2017-06-02T19:52:35.560Z,5.23
2017-06-02T19:55:01.607Z,5.37
2017-06-02T19:57:27.654Z,5.07
2017-06-02T19:59:53.710Z,6.87
2017-06-02T20:02:19.820Z,6.23
2017-06-02T20:04:45.882Z,5.73
2017-06-02T20:07:11.969Z,5.20
2017-06-02T20:09:38.055Z,5.80
2017-06-02T20:12:04.135Z,5.37
2017-06-02T20:14:30.254Z,5.30
2017-06-02T20:16:56.314Z,5.97
2017-06-02T20:19:22.398Z,6.50
2017-06-02T20:21:48.484Z,4.90
2017-06-02T20:24:14.574Z,5.40
2017-06-02T20:26:40.650Z,4.90
2017-06-02T20:29:07.521Z,4.80
2017-06-02T20:31:33.607Z,5.50
2017-06-02T20:33:59.695Z,4.80
2017-06-02T20:36:25.780Z,5.60
2017-06-02T20:38:51.842Z,4.93
2017-06-02T20:41:17.921Z,5.30
2017-06-02T20:43:43.994Z,5.93
2017-06-02T20:46:10.046Z,7.17
2017-06-02T20:48:36.106Z,8.17
2017-06-02T20:51:02.983Z,7.60
2017-06-02T20:53:29.051Z,8.63
2017-06-02T20:55:55.134Z,5.30
2017-06-02T20:58:21.328Z,7.77
2017-06-02T21:00:48.143Z,10.33
2017-06-02T21:03:14.233Z,8.87
2017-06-02T21:05:40.306Z,8.53
2017-06-02T21:08:06.403Z,6.83
2017-06-02T21:10:33.042Z,5.27
2017-06-02T21:12:59.106Z,6.00
2017-06-02T21:15:25.170Z,5.20
2017-06-02T21:17:51.258Z,4.90
2017-06-02T21:20:17.373Z,5.57
2017-06-02T21:22:43.450Z,11.07
2017-06-02T21:25:09.519Z,4.90
2017-06-02T21:27:35.586Z,7.13
2017-06-02T21:30:01.644Z,7.87
2017-06-02T21:32:27.706Z,6.10
2017-06-02T21:34:53.786Z,7.90
2017-06-02T21:37:19.836Z,8.70
2017-06-02T21:39:45.890Z,9.47
2017-06-02T21:42:11.958Z,8.97
2017-06-02T21:44:38.038Z,9.50
2017-06-02T21:47:04.100Z,8.60
2017-06-02T21:49:30.190Z,8.70
2017-06-02T21:51:56.251Z,8.10
2017-06-02T21:54:22.317Z,9.00
2017-06-02T21:56:48.378Z,9.32
2017-06-02T21:59:14.466Z,8.13
2017-06-02T22:01:40.538Z,9.10
2017-06-02T22:04:06.596Z,10.87
2017-06-02T22:06:32.649Z,9.38
2017-06-02T22:08:58.710Z,8.83
2017-06-02T22:11:24.771Z,7.27
2017-06-02T22:13:50.866Z,9.27
2017-06-02T22:16:16.945Z,8.17
2017-06-02T22:18:42.998Z,8.63
2017-06-02T22:21:09.074Z,8.52
2017-06-02T22:23:35.134Z,8.55
2017-06-02T22:26:01.174Z,8.40
2017-06-02T22:28:27.209Z,9.82
2017-06-02T22:30:53.266Z,9.32
2017-06-02T22:33:20.234Z,7.90
2017-06-02T22:35:46.279Z,7.90
2017-06-02T22:38:12.329Z,9.63
2017-06-02T22:40:38.385Z,10.23
2017-06-02T22:43:04.471Z,6.70
2017-06-02T22:45:30.521Z,10.77
2017-06-02T22:47:56.590Z,10.82
2017-06-02T22:50:22.637Z,9.52
2017-06-02T22:52:48.687Z,9.13
2017-06-02T22:55:14.788Z,9.77
2017-06-02T22:57:40.871Z,11.93
2017-06-02T23:00:06.933Z,9.18
2017-06-02T23:02:32.998Z,10.75
2017-06-02T23:04:59.063Z,10.02
2017-06-02T23:07:25.130Z,12.93
2017-06-02T23:09:51.187Z,10.30
2017-06-02T23:12:17.262Z,11.82
2017-06-02T23:14:43.328Z,10.77
2017-06-02T23:17:09.411Z,10.40
2017-06-02T23:19:35.490Z,9.95
2017-06-02T23:22:01.574Z,11.35
2017-06-02T23:24:27.642Z,7.72
2017-06-02T23:26:53.718Z,8.98
2017-06-02T23:29:19.794Z,10.15
2017-06-02T23:31:45.866Z,7.43
2017-06-02T23:34:11.949Z,9.18
2017-06-02T23:36:38.034Z,10.10
2017-06-02T23:39:04.113Z,9.05
2017-06-02T23:41:30.166Z,10.35
2017-06-02T23:43:56.242Z,9.88
2017-06-02T23:46:22.309Z,10.05
2017-06-02T23:48:49.122Z,10.52
2017-06-02T23:51:15.237Z,6.55
2017-06-02T23:53:41.314Z,6.47
2017-06-02T23:56:07.387Z,10.57
2017-06-02T23:58:33.454Z,11.18
